sensor_id;sensor_type;location;lat;lon;timestamp;pressure;altitude;pressure_sealevel;temperature;humidity
24762;BME280;12865;51.934;10.330;2023-04-02T00:01:40;98631.75;;;4.48;100.00
24762;BME280;12865;51.934;10.330;2023-04-02T00:04:28;98640.19;;;4.29;100.00
24762;BME280;12865;51.934;10.330;2023-04-02T00:07:24;98641.47;;;4.24;100.00
24762;BME280;12865;51.934;10.330;2023-04-02T00:10:31;98641.13;;;4.28;100.00
24762;BME280;12865;51.934;10.330;2023-04-02T00:16:06;98653.81;;;4.23;100.00
24762;BME280;12865;51.934;10.330;2023-04-02T00:18:55;98659.75;;;4.03;100.00
24762;BME280;12865;51.934;10.330;2023-04-02T00:21:43;98664.06;;;4.04;100.00
24762;BME280;12865;51.934;10.330;2023-04-02T00:24:31;98662.94;;;3.95;100.00
24762;BME280;12865;51.934;10.330;2023-04-02T00:27:18;98675.16;;;3.97;100.00
24762;BME280;12865;51.934;10.330;2023-04-02T00:30:07;98681.44;;;4.07;100.00
24762;BME280;12865;51.934;10.330;2023-04-02T00:32:53;98684.72;;;4.10;100.00
24762;BME280;12865;51.934;10.330;2023-04-02T00:35:39;98687.44;;;4.09;100.00
24762;BME280;12865;51.934;10.330;2023-04-02T00:38:32;98691.22;;;4.17;100.00
24762;BME280;12865;51.934;10.330;2023-04-02T00:41:25;98695.91;;;4.01;100.00
24762;BME280;12865;51.934;10.330;2023-04-02T00:44:15;98701.28;;;4.00;100.00
24762;BME280;12865;51.934;10.330;2023-04-02T00:47:25;98700.03;;;4.05;100.00
24762;BME280;12865;51.934;10.330;2023-04-02T00:53:21;98710.69;;;4.04;100.00
24762;BME280;12865;51.934;10.330;2023-04-02T00:56:19;98713.13;;;3.94;100.00
24762;BME280;12865;51.934;10.330;2023-04-02T00:59:34;98722.00;;;3.93;100.00
24762;BME280;12865;51.934;10.330;2023-04-02T01:02:29;98732.44;;;3.94;100.00
24762;BME280;12865;51.934;10.330;2023-04-02T01:08:39;98742.78;;;3.98;100.00
24762;BME280;12865;51.934;10.330;2023-04-02T01:14:48;98735.13;;;3.82;100.00
24762;BME280;12865;51.934;10.330;2023-04-02T01:29:35;98770.28;;;3.70;100.00
24762;BME280;12865;51.934;10.330;2023-04-02T01:32:25;98771.66;;;3.63;100.00
24762;BME280;12865;51.934;10.330;2023-04-02T01:35:12;98780.19;;;3.41;100.00
24762;BME280;12865;51.934;10.330;2023-04-02T01:38:08;98790.63;;;3.68;100.00
24762;BME280;12865;51.934;10.330;2023-04-02T01:41:12;98794.63;;;3.48;100.00
24762;BME280;12865;51.934;10.330;2023-04-02T01:44:06;98802.22;;;3.52;100.00
24762;BME280;12865;51.934;10.330;2023-04-02T01:46:52;98801.06;;;3.19;100.00
24762;BME280;12865;51.934;10.330;2023-04-02T01:49:38;98810.31;;;3.37;100.00
24762;BME280;12865;51.934;10.330;2023-04-02T01:52:35;98818.34;;;3.35;100.00
24762;BME280;12865;51.934;10.330;2023-04-02T01:58:32;98823.19;;;3.29;100.00
24762;BME280;12865;51.934;10.330;2023-04-02T02:01:21;98827.38;;;3.19;100.00
24762;BME280;12865;51.934;10.330;2023-04-02T02:04:11;98836.25;;;3.30;100.00
24762;BME280;12865;51.934;10.330;2023-04-02T02:06:58;98840.38;;;3.34;100.00
24762;BME280;12865;51.934;10.330;2023-04-02T02:09:46;98841.84;;;3.38;100.00
24762;BME280;12865;51.934;10.330;2023-04-02T02:12:33;98845.84;;;3.31;100.00
24762;BME280;12865;51.934;10.330;2023-04-02T02:15:21;98852.88;;;3.31;100.00
24762;BME280;12865;51.934;10.330;2023-04-02T02:18:11;98849.28;;;3.06;100.00
24762;BME280;12865;51.934;10.330;2023-04-02T02:20:58;98855.66;;;3.29;100.00
24762;BME280;12865;51.934;10.330;2023-04-02T02:23:45;98866.78;;;3.07;100.00
24762;BME280;12865;51.934;10.330;2023-04-02T02:26:32;98875.19;;;3.12;100.00
24762;BME280;12865;51.934;10.330;2023-04-02T02:29:21;98873.78;;;2.94;100.00
24762;BME280;12865;51.934;10.330;2023-04-02T02:32:09;98880.19;;;2.90;100.00
24762;BME280;12865;51.934;10.330;2023-04-02T02:35:20;98892.56;;;2.75;100.00
24762;BME280;12865;51.934;10.330;2023-04-02T02:41:46;98902.69;;;2.82;100.00
24762;BME280;12865;51.934;10.330;2023-04-02T02:44:36;98914.47;;;2.76;100.00
24762;BME280;12865;51.934;10.330;2023-04-02T02:47:28;98918.94;;;2.88;100.00
24762;BME280;12865;51.934;10.330;2023-04-02T02:50:26;98925.78;;;2.64;100.00
24762;BME280;12865;51.934;10.330;2023-04-02T02:53:21;98931.09;;;2.76;100.00
24762;BME280;12865;51.934;10.330;2023-04-02T02:56:07;98934.22;;;2.69;100.00
24762;BME280;12865;51.934;10.330;2023-04-02T02:58:53;98946.53;;;2.68;100.00
24762;BME280;12865;51.934;10.330;2023-04-02T03:01:42;98950.69;;;2.58;100.00
24762;BME280;12865;51.934;10.330;2023-04-02T03:04:28;98950.06;;;2.82;100.00
24762;BME280;12865;51.934;10.330;2023-04-02T03:07:21;98952.53;;;2.70;100.00
24762;BME280;12865;51.934;10.330;2023-04-02T03:10:18;98956.81;;;2.59;100.00
24762;BME280;12865;51.934;10.330;2023-04-02T03:19:07;98971.75;;;2.58;100.00
24762;BME280;12865;51.934;10.330;2023-04-02T03:22:02;98983.66;;;2.78;100.00
24762;BME280;12865;51.934;10.330;2023-04-02T03:25:04;98989.28;;;2.86;100.00
24762;BME280;12865;51.934;10.330;2023-04-02T03:27:58;98998.88;;;2.87;100.00
24762;BME280;12865;51.934;10.330;2023-04-02T03:30:53;99002.63;;;2.69;100.00
24762;BME280;12865;51.934;10.330;2023-04-02T03:33:47;99009.59;;;2.84;100.00
24762;BME280;12865;51.934;10.330;2023-04-02T03:36:47;99012.59;;;2.92;100.00
24762;BME280;12865;51.934;10.330;2023-04-02T03:39:41;99017.59;;;2.68;100.00
24762;BME280;12865;51.934;10.330;2023-04-02T03:42:36;99024.53;;;2.69;100.00
24762;BME280;12865;51.934;10.330;2023-04-02T03:45:26;99028.00;;;2.84;100.00
24762;BME280;12865;51.934;10.330;2023-04-02T03:48:27;99034.41;;;2.80;100.00
24762;BME280;12865;51.934;10.330;2023-04-02T03:51:45;99046.34;;;2.71;100.00
24762;BME280;12865;51.934;10.330;2023-04-02T03:54:36;99052.84;;;2.52;100.00
24762;BME280;12865;51.934;10.330;2023-04-02T03:57:46;99050.69;;;2.58;100.00
24762;BME280;12865;51.934;10.330;2023-04-02T04:03:51;99071.16;;;2.67;100.00
24762;BME280;12865;51.934;10.330;2023-04-02T04:06:41;99073.44;;;2.59;100.00
24762;BME280;12865;51.934;10.330;2023-04-02T04:09:33;99086.22;;;2.65;100.00
24762;BME280;12865;51.934;10.330;2023-04-02T04:12:31;99090.03;;;2.60;100.00
24762;BME280;12865;51.934;10.330;2023-04-02T04:15:31;99090.63;;;2.65;100.00
24762;BME280;12865;51.934;10.330;2023-04-02T04:18:53;99104.16;;;2.73;100.00
24762;BME280;12865;51.934;10.330;2023-04-02T04:21:47;99098.69;;;2.62;100.00
24762;BME280;12865;51.934;10.330;2023-04-02T04:24:33;99104.34;;;2.56;100.00
24762;BME280;12865;51.934;10.330;2023-04-02T04:27:28;99119.72;;;2.48;100.00
24762;BME280;12865;51.934;10.330;2023-04-02T04:30:29;99121.78;;;2.43;100.00
24762;BME280;12865;51.934;10.330;2023-04-02T04:33:25;99124.53;;;2.55;100.00
24762;BME280;12865;51.934;10.330;2023-04-02T04:36:20;99127.81;;;2.45;100.00
24762;BME280;12865;51.934;10.330;2023-04-02T04:39:20;99135.25;;;2.52;100.00
24762;BME280;12865;51.934;10.330;2023-04-02T04:42:17;99136.94;;;2.53;100.00
24762;BME280;12865;51.934;10.330;2023-04-02T04:45:15;99136.53;;;2.31;100.00
24762;BME280;12865;51.934;10.330;2023-04-02T04:48:27;99138.84;;;2.21;100.00
24762;BME280;12865;51.934;10.330;2023-04-02T04:51:19;99150.06;;;2.39;100.00
24762;BME280;12865;51.934;10.330;2023-04-02T04:54:11;99152.41;;;2.29;100.00
24762;BME280;12865;51.934;10.330;2023-04-02T04:57:01;99161.88;;;2.32;100.00
24762;BME280;12865;51.934;10.330;2023-04-02T04:59:55;99165.31;;;2.48;100.00
24762;BME280;12865;51.934;10.330;2023-04-02T05:03:05;99163.28;;;2.23;100.00
24762;BME280;12865;51.934;10.330;2023-04-02T05:05:59;99173.88;;;2.52;100.00
24762;BME280;12865;51.934;10.330;2023-04-02T05:08:51;99182.97;;;2.46;100.00
24762;BME280;12865;51.934;10.330;2023-04-02T05:11:44;99186.72;;;2.42;100.00
24762;BME280;12865;51.934;10.330;2023-04-02T05:14:35;99189.06;;;2.47;100.00
24762;BME280;12865;51.934;10.330;2023-04-02T05:17:28;99199.44;;;2.50;100.00
24762;BME280;12865;51.934;10.330;2023-04-02T05:23:17;99206.84;;;2.43;100.00
24762;BME280;12865;51.934;10.330;2023-04-02T05:26:10;99216.91;;;2.51;100.00
24762;BME280;12865;51.934;10.330;2023-04-02T05:29:21;99224.97;;;2.48;100.00
24762;BME280;12865;51.934;10.330;2023-04-02T05:32:19;99227.13;;;2.41;100.00
24762;BME280;12865;51.934;10.330;2023-04-02T05:35:14;99237.41;;;2.30;100.00
24762;BME280;12865;51.934;10.330;2023-04-02T05:38:01;99230.19;;;2.33;100.00
24762;BME280;12865;51.934;10.330;2023-04-02T05:40:52;99238.13;;;2.48;100.00
24762;BME280;12865;51.934;10.330;2023-04-02T05:43:46;99236.97;;;2.38;100.00
24762;BME280;12865;51.934;10.330;2023-04-02T05:46:35;99253.63;;;2.38;100.00
24762;BME280;12865;51.934;10.330;2023-04-02T05:49:34;99254.03;;;2.60;100.00
24762;BME280;12865;51.934;10.330;2023-04-02T05:52:29;99256.94;;;2.56;100.00
24762;BME280;12865;51.934;10.330;2023-04-02T05:55:23;99263.09;;;2.41;100.00
24762;BME280;12865;51.934;10.330;2023-04-02T05:58:16;99268.97;;;2.60;100.00
24762;BME280;12865;51.934;10.330;2023-04-02T06:01:20;99266.69;;;2.69;100.00
24762;BME280;12865;51.934;10.330;2023-04-02T06:04:26;99274.84;;;2.65;100.00
24762;BME280;12865;51.934;10.330;2023-04-02T06:07:22;99282.47;;;2.69;100.00
24762;BME280;12865;51.934;10.330;2023-04-02T06:13:06;99293.72;;;2.57;100.00
24762;BME280;12865;51.934;10.330;2023-04-02T06:15:52;99292.66;;;2.60;100.00
24762;BME280;12865;51.934;10.330;2023-04-02T06:18:38;99306.19;;;2.54;100.00
24762;BME280;12865;51.934;10.330;2023-04-02T06:21:24;99313.75;;;2.90;100.00
24762;BME280;12865;51.934;10.330;2023-04-02T06:24:16;99316.03;;;2.66;100.00
24762;BME280;12865;51.934;10.330;2023-04-02T06:27:04;99323.50;;;2.58;100.00
24762;BME280;12865;51.934;10.330;2023-04-02T06:29:56;99326.78;;;2.77;100.00
24762;BME280;12865;51.934;10.330;2023-04-02T06:32:44;99328.47;;;2.78;100.00
24762;BME280;12865;51.934;10.330;2023-04-02T06:35:31;99342.53;;;2.93;100.00
24762;BME280;12865;51.934;10.330;2023-04-02T06:38:21;99345.97;;;2.79;100.00
24762;BME280;12865;51.934;10.330;2023-04-02T06:41:21;99349.69;;;2.75;100.00
24762;BME280;12865;51.934;10.330;2023-04-02T06:44:21;99356.66;;;2.76;100.00
24762;BME280;12865;51.934;10.330;2023-04-02T06:47:21;99362.69;;;2.78;100.00
24762;BME280;12865;51.934;10.330;2023-04-02T06:50:17;99362.50;;;2.81;100.00
24762;BME280;12865;51.934;10.330;2023-04-02T06:53:05;99366.59;;;2.87;100.00
24762;BME280;12865;51.934;10.330;2023-04-02T06:59:14;99382.47;;;2.85;100.00
24762;BME280;12865;51.934;10.330;2023-04-02T07:02:04;99387.97;;;2.96;100.00
24762;BME280;12865;51.934;10.330;2023-04-02T07:04:55;99392.38;;;2.96;100.00
24762;BME280;12865;51.934;10.330;2023-04-02T07:07:43;99404.19;;;2.89;100.00
24762;BME280;12865;51.934;10.330;2023-04-02T07:10:28;99406.09;;;3.16;100.00
24762;BME280;12865;51.934;10.330;2023-04-02T07:13:16;99412.66;;;3.09;100.00
24762;BME280;12865;51.934;10.330;2023-04-02T07:16:02;99419.53;;;3.12;100.00
24762;BME280;12865;51.934;10.330;2023-04-02T07:18:48;99421.88;;;2.87;100.00
24762;BME280;12865;51.934;10.330;2023-04-02T07:21:34;99425.16;;;3.06;100.00
24762;BME280;12865;51.934;10.330;2023-04-02T07:24:19;99437.63;;;3.02;100.00
24762;BME280;12865;51.934;10.330;2023-04-02T07:27:05;99453.63;;;2.99;100.00
24762;BME280;12865;51.934;10.330;2023-04-02T07:29:51;99451.78;;;3.01;100.00
24762;BME280;12865;51.934;10.330;2023-04-02T07:32:36;99450.56;;;2.91;100.00
24762;BME280;12865;51.934;10.330;2023-04-02T07:35:22;99456.84;;;2.89;100.00
24762;BME280;12865;51.934;10.330;2023-04-02T07:38:08;99456.63;;;2.93;100.00
24762;BME280;12865;51.934;10.330;2023-04-02T07:40:54;99468.50;;;3.00;100.00
24762;BME280;12865;51.934;10.330;2023-04-02T07:43:40;99471.28;;;2.97;100.00
24762;BME280;12865;51.934;10.330;2023-04-02T07:46:26;99473.16;;;2.95;100.00
24762;BME280;12865;51.934;10.330;2023-04-02T07:49:12;99475.91;;;2.94;100.00
24762;BME280;12865;51.934;10.330;2023-04-02T07:51:58;99482.69;;;2.82;100.00
24762;BME280;12865;51.934;10.330;2023-04-02T07:54:43;99494.91;;;2.99;100.00
24762;BME280;12865;51.934;10.330;2023-04-02T07:57:29;99494.97;;;3.29;100.00
24762;BME280;12865;51.934;10.330;2023-04-02T08:00:15;99496.94;;;3.09;100.00
24762;BME280;12865;51.934;10.330;2023-04-02T08:03:03;99498.28;;;3.32;100.00
24762;BME280;12865;51.934;10.330;2023-04-02T08:05:50;99508.22;;;3.43;100.00
24762;BME280;12865;51.934;10.330;2023-04-02T08:08:36;99519.88;;;3.23;100.00
24762;BME280;12865;51.934;10.330;2023-04-02T08:11:22;99524.81;;;3.29;100.00
24762;BME280;12865;51.934;10.330;2023-04-02T08:14:09;99529.19;;;3.44;100.00
24762;BME280;12865;51.934;10.330;2023-04-02T08:16:55;99533.81;;;3.41;100.00
24762;BME280;12865;51.934;10.330;2023-04-02T08:19:41;99535.59;;;3.09;100.00
24762;BME280;12865;51.934;10.330;2023-04-02T08:22:28;99546.91;;;3.27;100.00
24762;BME280;12865;51.934;10.330;2023-04-02T08:25:14;99546.97;;;3.41;100.00
24762;BME280;12865;51.934;10.330;2023-04-02T08:28:00;99553.94;;;3.42;100.00
24762;BME280;12865;51.934;10.330;2023-04-02T08:30:47;99550.19;;;3.46;100.00
24762;BME280;12865;51.934;10.330;2023-04-02T08:33:39;99558.44;;;3.40;100.00
24762;BME280;12865;51.934;10.330;2023-04-02T08:36:44;99563.88;;;3.37;100.00
24762;BME280;12865;51.934;10.330;2023-04-02T08:39:30;99563.00;;;3.52;100.00
24762;BME280;12865;51.934;10.330;2023-04-02T08:42:49;99566.19;;;3.43;100.00
24762;BME280;12865;51.934;10.330;2023-04-02T08:48:41;99573.41;;;3.55;100.00
24762;BME280;12865;51.934;10.330;2023-04-02T08:51:33;99578.72;;;3.69;100.00
24762;BME280;12865;51.934;10.330;2023-04-02T08:54:25;99587.66;;;3.51;100.00
24762;BME280;12865;51.934;10.330;2023-04-02T09:00:32;99597.59;;;3.77;100.00
24762;BME280;12865;51.934;10.330;2023-04-02T09:06:46;99603.63;;;3.79;100.00
24762;BME280;12865;51.934;10.330;2023-04-02T09:09:36;99612.06;;;3.70;100.00
24762;BME280;12865;51.934;10.330;2023-04-02T09:12:28;99608.94;;;3.64;100.00
24762;BME280;12865;51.934;10.330;2023-04-02T09:15:28;99610.88;;;3.60;100.00
24762;BME280;12865;51.934;10.330;2023-04-02T09:18:17;99624.16;;;3.59;100.00
24762;BME280;12865;51.934;10.330;2023-04-02T09:24:10;99630.09;;;3.62;100.00
24762;BME280;12865;51.934;10.330;2023-04-02T09:26:57;99629.69;;;3.70;100.00
24762;BME280;12865;51.934;10.330;2023-04-02T09:29:45;99643.94;;;3.81;100.00
24762;BME280;12865;51.934;10.330;2023-04-02T09:35:25;99649.66;;;3.89;100.00
24762;BME280;12865;51.934;10.330;2023-04-02T09:41:54;99658.72;;;4.00;100.00
24762;BME280;12865;51.934;10.330;2023-04-02T09:44:40;99666.91;;;3.95;100.00
24762;BME280;12865;51.934;10.330;2023-04-02T09:47:26;99663.50;;;3.93;100.00
24762;BME280;12865;51.934;10.330;2023-04-02T09:53:32;99682.38;;;4.01;100.00
24762;BME280;12865;51.934;10.330;2023-04-02T09:56:22;99691.41;;;3.97;100.00
24762;BME280;12865;51.934;10.330;2023-04-02T09:59:18;99696.25;;;3.89;100.00
24762;BME280;12865;51.934;10.330;2023-04-02T10:02:27;99705.03;;;4.05;100.00
24762;BME280;12865;51.934;10.330;2023-04-02T10:05:21;99706.16;;;3.85;100.00
24762;BME280;12865;51.934;10.330;2023-04-02T10:08:24;99709.78;;;3.99;100.00
24762;BME280;12865;51.934;10.330;2023-04-02T10:11:20;99718.09;;;4.07;100.00
24762;BME280;12865;51.934;10.330;2023-04-02T10:14:17;99716.44;;;4.35;100.00
24762;BME280;12865;51.934;10.330;2023-04-02T10:17:20;99725.09;;;4.08;100.00
24762;BME280;12865;51.934;10.330;2023-04-02T10:20:22;99731.75;;;3.99;100.00
24762;BME280;12865;51.934;10.330;2023-04-02T10:23:17;99734.91;;;4.06;100.00
24762;BME280;12865;51.934;10.330;2023-04-02T10:41:21;99754.53;;;4.31;96.62
24762;BME280;12865;51.934;10.330;2023-04-02T10:47:51;99760.28;;;4.38;98.22
24762;BME280;12865;51.934;10.330;2023-04-02T10:50:51;99758.06;;;4.46;97.26
24762;BME280;12865;51.934;10.330;2023-04-02T10:53:54;99764.69;;;4.53;97.20
24762;BME280;12865;51.934;10.330;2023-04-02T10:56:43;99774.28;;;4.40;94.20
24762;BME280;12865;51.934;10.330;2023-04-02T10:59:33;99783.00;;;4.56;97.68
24762;BME280;12865;51.934;10.330;2023-04-02T11:02:37;99777.09;;;4.67;94.85
24762;BME280;12865;51.934;10.330;2023-04-02T11:05:33;99774.97;;;4.73;95.45
24762;BME280;12865;51.934;10.330;2023-04-02T11:08:25;99782.72;;;4.91;94.17
24762;BME280;12865;51.934;10.330;2023-04-02T11:11:29;99783.97;;;4.99;92.94
24762;BME280;12865;51.934;10.330;2023-04-02T11:14:21;99794.06;;;4.93;93.62
24762;BME280;12865;51.934;10.330;2023-04-02T11:17:12;99795.31;;;4.71;93.59
24762;BME280;12865;51.934;10.330;2023-04-02T11:23:27;99815.03;;;4.96;94.95
24762;BME280;12865;51.934;10.330;2023-04-02T11:26:33;99802.56;;;4.98;90.70
24762;BME280;12865;51.934;10.330;2023-04-02T11:29:29;99816.53;;;5.00;92.38
24762;BME280;12865;51.934;10.330;2023-04-02T11:41:07;99829.63;;;5.17;87.75
24762;BME280;12865;51.934;10.330;2023-04-02T11:43:59;99825.00;;;5.21;85.55
24762;BME280;12865;51.934;10.330;2023-04-02T11:46:45;99830.06;;;5.39;86.35
24762;BME280;12865;51.934;10.330;2023-04-02T11:49:36;99839.34;;;5.61;81.63
24762;BME280;12865;51.934;10.330;2023-04-02T11:52:48;99843.06;;;5.42;83.66
24762;BME280;12865;51.934;10.330;2023-04-02T11:55:39;99843.78;;;5.60;84.21
24762;BME280;12865;51.934;10.330;2023-04-02T12:10:58;99861.50;;;5.58;83.25
24762;BME280;12865;51.934;10.330;2023-04-02T12:13:46;99863.47;;;5.54;87.65
24762;BME280;12865;51.934;10.330;2023-04-02T12:16:33;99875.28;;;5.93;81.79
24762;BME280;12865;51.934;10.330;2023-04-02T12:19:19;99873.38;;;5.95;83.75
24762;BME280;12865;51.934;10.330;2023-04-02T12:22:15;99877.91;;;6.07;80.00
24762;BME280;12865;51.934;10.330;2023-04-02T12:25:22;99872.13;;;5.72;81.29
24762;BME280;12865;51.934;10.330;2023-04-02T12:28:15;99879.59;;;5.80;83.12
24762;BME280;12865;51.934;10.330;2023-04-02T12:33:53;99888.75;;;5.74;81.61
24762;BME280;12865;51.934;10.330;2023-04-02T12:36:50;99899.84;;;5.51;81.21
24762;BME280;12865;51.934;10.330;2023-04-02T12:39:37;99893.66;;;5.66;80.66
24762;BME280;12865;51.934;10.330;2023-04-02T12:42:34;99893.91;;;5.62;81.42
24762;BME280;12865;51.934;10.330;2023-04-02T12:45:26;99891.94;;;5.65;78.62
24762;BME280;12865;51.934;10.330;2023-04-02T12:48:12;99894.03;;;5.74;80.99
24762;BME280;12865;51.934;10.330;2023-04-02T12:50:58;99881.22;;;5.97;77.99
24762;BME280;12865;51.934;10.330;2023-04-02T12:53:49;99892.72;;;6.24;80.27
24762;BME280;12865;51.934;10.330;2023-04-02T12:56:36;99892.81;;;6.51;77.75
24762;BME280;12865;51.934;10.330;2023-04-02T13:02:26;99908.69;;;6.92;74.58
24762;BME280;12865;51.934;10.330;2023-04-02T13:05:39;99898.66;;;7.09;74.21
24762;BME280;12865;51.934;10.330;2023-04-02T13:08:29;99901.72;;;7.43;69.83
24762;BME280;12865;51.934;10.330;2023-04-02T13:11:17;99895.69;;;7.41;67.07
24762;BME280;12865;51.934;10.330;2023-04-02T13:14:06;99889.59;;;7.91;66.43
24762;BME280;12865;51.934;10.330;2023-04-02T13:16:53;99889.34;;;7.81;63.96
24762;BME280;12865;51.934;10.330;2023-04-02T13:19:39;99892.72;;;7.45;66.86
24762;BME280;12865;51.934;10.330;2023-04-02T13:22:29;99890.41;;;7.66;67.88
24762;BME280;12865;51.934;10.330;2023-04-02T13:25:15;99891.44;;;7.51;69.79
24762;BME280;12865;51.934;10.330;2023-04-02T13:28:01;99893.44;;;7.35;67.47
24762;BME280;12865;51.934;10.330;2023-04-02T13:30:47;99896.38;;;7.30;66.91
24762;BME280;12865;51.934;10.330;2023-04-02T13:33:33;99908.66;;;7.58;66.61
24762;BME280;12865;51.934;10.330;2023-04-02T13:36:18;99899.53;;;7.62;65.16
24762;BME280;12865;51.934;10.330;2023-04-02T13:39:05;99902.63;;;7.94;68.01
24762;BME280;12865;51.934;10.330;2023-04-02T13:41:55;99904.84;;;7.62;69.08
24762;BME280;12865;51.934;10.330;2023-04-02T13:44:41;99904.09;;;7.47;68.00
24762;BME280;12865;51.934;10.330;2023-04-02T13:47:27;99907.91;;;7.56;69.21
24762;BME280;12865;51.934;10.330;2023-04-02T13:50:20;99909.00;;;8.04;67.64
24762;BME280;12865;51.934;10.330;2023-04-02T13:53:14;99919.41;;;7.95;65.31
24762;BME280;12865;51.934;10.330;2023-04-02T13:56:04;99917.59;;;8.08;65.19
24762;BME280;12865;51.934;10.330;2023-04-02T13:58:50;99918.56;;;8.45;64.20
24762;BME280;12865;51.934;10.330;2023-04-02T14:01:36;99917.25;;;8.50;63.64
24762;BME280;12865;51.934;10.330;2023-04-02T14:04:25;99917.06;;;8.53;62.92
24762;BME280;12865;51.934;10.330;2023-04-02T14:22:50;99941.09;;;8.26;63.60
24762;BME280;12865;51.934;10.330;2023-04-02T14:41:04;99944.13;;;8.20;64.58
24762;BME280;12865;51.934;10.330;2023-04-02T14:43:57;99948.41;;;7.98;66.65
24762;BME280;12865;51.934;10.330;2023-04-02T14:46:44;99946.28;;;7.77;66.31
24762;BME280;12865;51.934;10.330;2023-04-02T14:49:35;99943.63;;;7.90;65.33
24762;BME280;12865;51.934;10.330;2023-04-02T14:52:25;99948.94;;;7.77;66.41
24762;BME280;12865;51.934;10.330;2023-04-02T14:55:23;99952.38;;;7.53;66.10
24762;BME280;12865;51.934;10.330;2023-04-02T14:58:35;99956.69;;;7.41;66.25
24762;BME280;12865;51.934;10.330;2023-04-02T15:01:26;99949.94;;;7.23;70.58
24762;BME280;12865;51.934;10.330;2023-04-02T15:04:19;99955.00;;;7.40;71.17
24762;BME280;12865;51.934;10.330;2023-04-02T15:07:32;99953.47;;;7.36;68.89
24762;BME280;12865;51.934;10.330;2023-04-02T15:10:30;99959.28;;;7.55;67.03
24762;BME280;12865;51.934;10.330;2023-04-02T15:13:20;99966.38;;;7.55;70.07
24762;BME280;12865;51.934;10.330;2023-04-02T15:16:12;99968.16;;;7.41;67.49
24762;BME280;12865;51.934;10.330;2023-04-02T15:19:00;99962.50;;;7.33;69.05
24762;BME280;12865;51.934;10.330;2023-04-02T15:24:49;99971.38;;;7.20;68.33
24762;BME280;12865;51.934;10.330;2023-04-02T15:27:57;99973.31;;;7.03;70.26
24762;BME280;12865;51.934;10.330;2023-04-02T15:30:46;99986.59;;;6.89;68.89
24762;BME280;12865;51.934;10.330;2023-04-02T15:33:39;99984.25;;;6.85;67.17
24762;BME280;12865;51.934;10.330;2023-04-02T15:42:33;99995.38;;;7.04;68.27
24762;BME280;12865;51.934;10.330;2023-04-02T15:45:25;100005.34;;;7.00;67.21
24762;BME280;12865;51.934;10.330;2023-04-02T16:00:28;100015.94;;;7.00;70.68
24762;BME280;12865;51.934;10.330;2023-04-02T16:03:27;100020.03;;;6.92;68.58
24762;BME280;12865;51.934;10.330;2023-04-02T16:06:29;100025.22;;;6.93;68.38
24762;BME280;12865;51.934;10.330;2023-04-02T16:10:34;100026.88;;;7.08;68.12
24762;BME280;12865;51.934;10.330;2023-04-02T16:12:54;100027.53;;;7.12;66.15
24762;BME280;12865;51.934;10.330;2023-04-02T16:15:44;100027.28;;;6.88;67.46
24762;BME280;12865;51.934;10.330;2023-04-02T16:21:49;100028.88;;;7.05;67.77
24762;BME280;12865;51.934;10.330;2023-04-02T16:24:38;100026.53;;;7.00;68.67
24762;BME280;12865;51.934;10.330;2023-04-02T16:27:31;100034.84;;;7.08;69.63
24762;BME280;12865;51.934;10.330;2023-04-02T16:30:38;100033.38;;;6.90;70.84
24762;BME280;12865;51.934;10.330;2023-04-02T16:33:35;100047.19;;;6.67;69.74
24762;BME280;12865;51.934;10.330;2023-04-02T16:42:16;100060.81;;;6.61;71.37
24762;BME280;12865;51.934;10.330;2023-04-02T16:45:22;100060.34;;;6.54;69.64
24762;BME280;12865;51.934;10.330;2023-04-02T16:48:36;100060.03;;;6.59;69.65
24762;BME280;12865;51.934;10.330;2023-04-02T16:51:36;100061.97;;;6.57;68.14
24762;BME280;12865;51.934;10.330;2023-04-02T16:57:32;100075.28;;;6.55;68.84
24762;BME280;12865;51.934;10.330;2023-04-02T17:00:41;100074.34;;;6.42;69.28
24762;BME280;12865;51.934;10.330;2023-04-02T17:09:51;100090.69;;;6.35;70.68
24762;BME280;12865;51.934;10.330;2023-04-02T17:12:44;100095.81;;;6.38;70.34
24762;BME280;12865;51.934;10.330;2023-04-02T17:15:35;100106.00;;;6.29;71.50
24762;BME280;12865;51.934;10.330;2023-04-02T17:18:22;100104.59;;;6.52;71.43
24762;BME280;12865;51.934;10.330;2023-04-02T17:21:18;100111.13;;;6.47;70.42
24762;BME280;12865;51.934;10.330;2023-04-02T17:24:28;100115.94;;;6.40;70.44
24762;BME280;12865;51.934;10.330;2023-04-02T17:27:28;100114.56;;;6.19;70.84
24762;BME280;12865;51.934;10.330;2023-04-02T17:33:17;100127.88;;;6.17;70.21
24762;BME280;12865;51.934;10.330;2023-04-02T17:36:24;100127.16;;;6.15;69.47
24762;BME280;12865;51.934;10.330;2023-04-02T17:42:13;100142.09;;;6.16;69.42
24762;BME280;12865;51.934;10.330;2023-04-02T17:51:07;100158.50;;;6.07;71.31
24762;BME280;12865;51.934;10.330;2023-04-02T18:05:50;100165.50;;;5.77;74.95
24762;BME280;12865;51.934;10.330;2023-04-02T18:11:42;100175.91;;;5.64;76.67
24762;BME280;12865;51.934;10.330;2023-04-02T18:24:35;100205.41;;;5.41;76.83
24762;BME280;12865;51.934;10.330;2023-04-02T18:30:54;100213.97;;;5.46;73.88
24762;BME280;12865;51.934;10.330;2023-04-02T18:33:57;100213.25;;;5.42;71.47
24762;BME280;12865;51.934;10.330;2023-04-02T18:37:07;100218.88;;;5.36;69.55
24762;BME280;12865;51.934;10.330;2023-04-02T18:46:34;100227.59;;;5.38;70.80
24762;BME280;12865;51.934;10.330;2023-04-02T18:49:39;100239.91;;;5.22;72.50
24762;BME280;12865;51.934;10.330;2023-04-02T18:52:30;100246.22;;;5.20;73.28
24762;BME280;12865;51.934;10.330;2023-04-02T18:55:26;100249.50;;;5.25;74.11
24762;BME280;12865;51.934;10.330;2023-04-02T18:58:47;100253.53;;;5.14;74.23
24762;BME280;12865;51.934;10.330;2023-04-02T19:01:46;100254.13;;;5.04;74.82
24762;BME280;12865;51.934;10.330;2023-04-02T19:04:34;100257.44;;;5.07;75.14
24762;BME280;12865;51.934;10.330;2023-04-02T19:07:22;100270.09;;;5.18;74.08